sensor_id;sensor_type;location;lat;lon;timestamp;temperature;humidity
7307;DHT22;3694;48.732;9.248;2022-11-20T00:01:40;4.60;99.90
7307;DHT22;3694;48.732;9.248;2022-11-20T00:04:05;4.60;99.90
7307;DHT22;3694;48.732;9.248;2022-11-20T00:06:31;4.60;99.90
7307;DHT22;3694;48.732;9.248;2022-11-20T00:08:59;4.60;99.90
7307;DHT22;3694;48.732;9.248;2022-11-20T00:11:27;4.50;99.90
7307;DHT22;3694;48.732;9.248;2022-11-20T00:13:55;4.50;99.90
7307;DHT22;3694;48.732;9.248;2022-11-20T00:16:23;4.50;99.90
7307;DHT22;3694;48.732;9.248;2022-11-20T00:18:50;4.50;99.90
7307;DHT22;3694;48.732;9.248;2022-11-20T00:21:21;4.50;99.90
7307;DHT22;3694;48.732;9.248;2022-11-20T00:23:48;4.60;99.90
7307;DHT22;3694;48.732;9.248;2022-11-20T00:26:15;4.60;99.90
7307;DHT22;3694;48.732;9.248;2022-11-20T00:28:42;4.60;99.90
7307;DHT22;3694;48.732;9.248;2022-11-20T00:31:17;4.60;99.90
7307;DHT22;3694;48.732;9.248;2022-11-20T00:33:43;4.70;99.90
7307;DHT22;3694;48.732;9.248;2022-11-20T00:36:31;4.60;99.90
7307;DHT22;3694;48.732;9.248;2022-11-20T00:38:58;4.70;99.90
7307;DHT22;3694;48.732;9.248;2022-11-20T00:41:25;4.70;99.90
7307;DHT22;3694;48.732;9.248;2022-11-20T00:43:54;4.70;99.90
7307;DHT22;3694;48.732;9.248;2022-11-20T00:46:22;4.70;99.90
7307;DHT22;3694;48.732;9.248;2022-11-20T00:48:48;4.70;99.90
7307;DHT22;3694;48.732;9.248;2022-11-20T00:51:16;4.70;99.90
7307;DHT22;3694;48.732;9.248;2022-11-20T00:53:44;4.70;99.90
7307;DHT22;3694;48.732;9.248;2022-11-20T00:56:11;4.70;99.90
7307;DHT22;3694;48.732;9.248;2022-11-20T00:58:39;4.70;99.90
7307;DHT22;3694;48.732;9.248;2022-11-20T01:01:10;4.70;99.90
7307;DHT22;3694;48.732;9.248;2022-11-20T01:03:39;4.70;99.90
7307;DHT22;3694;48.732;9.248;2022-11-20T01:06:20;4.70;99.90
7307;DHT22;3694;48.732;9.248;2022-11-20T01:08:47;4.70;99.90
7307;DHT22;3694;48.732;9.248;2022-11-20T01:11:21;4.70;99.90
7307;DHT22;3694;48.732;9.248;2022-11-20T01:13:49;4.70;99.90
7307;DHT22;3694;48.732;9.248;2022-11-20T01:16:19;4.70;99.90
7307;DHT22;3694;48.732;9.248;2022-11-20T01:18:48;4.70;99.90
7307;DHT22;3694;48.732;9.248;2022-11-20T01:21:21;4.70;99.90
7307;DHT22;3694;48.732;9.248;2022-11-20T01:23:47;4.60;99.90
7307;DHT22;3694;48.732;9.248;2022-11-20T01:26:16;4.60;99.90
7307;DHT22;3694;48.732;9.248;2022-11-20T01:28:43;4.60;99.90
7307;DHT22;3694;48.732;9.248;2022-11-20T01:33:46;4.60;99.90
7307;DHT22;3694;48.732;9.248;2022-11-20T01:36:13;4.60;99.90
7307;DHT22;3694;48.732;9.248;2022-11-20T01:38:39;4.60;99.90
7307;DHT22;3694;48.732;9.248;2022-11-20T01:41:06;4.60;99.90
7307;DHT22;3694;48.732;9.248;2022-11-20T01:43:32;4.60;99.90
7307;DHT22;3694;48.732;9.248;2022-11-20T01:46:05;4.60;99.90
7307;DHT22;3694;48.732;9.248;2022-11-20T01:51:12;4.60;99.90
7307;DHT22;3694;48.732;9.248;2022-11-20T01:53:40;4.50;99.90
7307;DHT22;3694;48.732;9.248;2022-11-20T01:56:09;4.50;99.90
7307;DHT22;3694;48.732;9.248;2022-11-20T01:58:38;4.50;99.90
7307;DHT22;3694;48.732;9.248;2022-11-20T02:01:04;4.40;99.90
7307;DHT22;3694;48.732;9.248;2022-11-20T02:03:30;4.30;99.90
7307;DHT22;3694;48.732;9.248;2022-11-20T02:08:31;4.20;99.90
7307;DHT22;3694;48.732;9.248;2022-11-20T02:10:57;4.10;99.90
7307;DHT22;3694;48.732;9.248;2022-11-20T02:13:23;4.00;99.90
7307;DHT22;3694;48.732;9.248;2022-11-20T02:18:42;4.00;99.90
7307;DHT22;3694;48.732;9.248;2022-11-20T02:21:21;4.00;99.90
7307;DHT22;3694;48.732;9.248;2022-11-20T02:24:06;4.00;99.90
7307;DHT22;3694;48.732;9.248;2022-11-20T02:26:49;4.00;99.90
7307;DHT22;3694;48.732;9.248;2022-11-20T02:29:18;4.00;99.90
7307;DHT22;3694;48.732;9.248;2022-11-20T02:31:45;4.10;99.90
7307;DHT22;3694;48.732;9.248;2022-11-20T02:34:10;4.10;99.90
7307;DHT22;3694;48.732;9.248;2022-11-20T02:36:39;4.10;99.90
7307;DHT22;3694;48.732;9.248;2022-11-20T02:39:06;4.10;99.90
7307;DHT22;3694;48.732;9.248;2022-11-20T02:41:35;4.10;99.90
7307;DHT22;3694;48.732;9.248;2022-11-20T02:44:01;4.10;99.90
7307;DHT22;3694;48.732;9.248;2022-11-20T02:46:27;4.10;99.90
7307;DHT22;3694;48.732;9.248;2022-11-20T02:48:52;4.10;99.90
7307;DHT22;3694;48.732;9.248;2022-11-20T02:51:18;4.00;99.90
7307;DHT22;3694;48.732;9.248;2022-11-20T02:53:43;4.00;99.90
7307;DHT22;3694;48.732;9.248;2022-11-20T02:56:09;4.00;99.90
7307;DHT22;3694;48.732;9.248;2022-11-20T02:58:35;4.00;99.90
7307;DHT22;3694;48.732;9.248;2022-11-20T03:01:00;3.90;99.90
7307;DHT22;3694;48.732;9.248;2022-11-20T03:03:26;3.90;99.90
7307;DHT22;3694;48.732;9.248;2022-11-20T03:05:51;3.90;99.90
7307;DHT22;3694;48.732;9.248;2022-11-20T03:08:17;4.00;99.90
7307;DHT22;3694;48.732;9.248;2022-11-20T03:10:42;4.00;99.90
7307;DHT22;3694;48.732;9.248;2022-11-20T03:13:08;4.00;99.90
7307;DHT22;3694;48.732;9.248;2022-11-20T03:15:35;4.00;99.90
7307;DHT22;3694;48.732;9.248;2022-11-20T03:18:00;4.00;99.90
7307;DHT22;3694;48.732;9.248;2022-11-20T03:20:26;4.00;99.90
7307;DHT22;3694;48.732;9.248;2022-11-20T03:22:53;4.10;99.90
7307;DHT22;3694;48.732;9.248;2022-11-20T03:25:19;4.20;99.90
7307;DHT22;3694;48.732;9.248;2022-11-20T03:27:45;4.20;99.90
7307;DHT22;3694;48.732;9.248;2022-11-20T03:30:10;4.40;99.90
7307;DHT22;3694;48.732;9.248;2022-11-20T03:32:36;4.30;99.90
7307;DHT22;3694;48.732;9.248;2022-11-20T03:35:01;4.40;99.90
7307;DHT22;3694;48.732;9.248;2022-11-20T03:37:27;4.40;99.90
7307;DHT22;3694;48.732;9.248;2022-11-20T03:39:52;4.40;99.90
7307;DHT22;3694;48.732;9.248;2022-11-20T03:42:18;4.40;99.90
7307;DHT22;3694;48.732;9.248;2022-11-20T03:45:03;4.40;99.90
7307;DHT22;3694;48.732;9.248;2022-11-20T03:47:28;4.30;99.90
7307;DHT22;3694;48.732;9.248;2022-11-20T03:49:54;4.30;99.90
7307;DHT22;3694;48.732;9.248;2022-11-20T03:52:19;4.20;99.90
7307;DHT22;3694;48.732;9.248;2022-11-20T03:54:45;4.00;99.90
7307;DHT22;3694;48.732;9.248;2022-11-20T03:57:10;4.00;99.90
7307;DHT22;3694;48.732;9.248;2022-11-20T03:59:36;3.80;99.90
7307;DHT22;3694;48.732;9.248;2022-11-20T04:02:01;3.70;99.90
7307;DHT22;3694;48.732;9.248;2022-11-20T04:04:28;3.60;99.90
7307;DHT22;3694;48.732;9.248;2022-11-20T04:06:53;3.60;99.90
7307;DHT22;3694;48.732;9.248;2022-11-20T04:09:19;3.50;99.90
7307;DHT22;3694;48.732;9.248;2022-11-20T04:11:44;3.50;99.90
7307;DHT22;3694;48.732;9.248;2022-11-20T04:14:15;3.60;99.90
7307;DHT22;3694;48.732;9.248;2022-11-20T04:16:41;3.60;99.90
7307;DHT22;3694;48.732;9.248;2022-11-20T04:19:10;3.70;99.90
7307;DHT22;3694;48.732;9.248;2022-11-20T04:21:35;3.70;99.90
7307;DHT22;3694;48.732;9.248;2022-11-20T04:24:01;3.70;99.90
7307;DHT22;3694;48.732;9.248;2022-11-20T04:26:28;3.70;99.90
7307;DHT22;3694;48.732;9.248;2022-11-20T04:28:54;3.70;99.90
7307;DHT22;3694;48.732;9.248;2022-11-20T04:31:22;3.70;99.90
7307;DHT22;3694;48.732;9.248;2022-11-20T04:33:49;3.70;99.90
7307;DHT22;3694;48.732;9.248;2022-11-20T04:36:16;3.60;99.90
7307;DHT22;3694;48.732;9.248;2022-11-20T04:38:43;3.60;99.90
7307;DHT22;3694;48.732;9.248;2022-11-20T04:41:18;3.70;99.90
7307;DHT22;3694;48.732;9.248;2022-11-20T04:43:48;3.70;99.90
7307;DHT22;3694;48.732;9.248;2022-11-20T04:46:14;3.70;99.90
7307;DHT22;3694;48.732;9.248;2022-11-20T04:48:40;3.70;99.90
7307;DHT22;3694;48.732;9.248;2022-11-20T04:51:06;3.80;99.90
7307;DHT22;3694;48.732;9.248;2022-11-20T04:53:31;3.80;99.90
7307;DHT22;3694;48.732;9.248;2022-11-20T04:56:02;3.80;99.90
7307;DHT22;3694;48.732;9.248;2022-11-20T04:58:28;3.80;99.90
7307;DHT22;3694;48.732;9.248;2022-11-20T05:00:53;3.90;99.90
7307;DHT22;3694;48.732;9.248;2022-11-20T05:03:25;3.90;99.90
7307;DHT22;3694;48.732;9.248;2022-11-20T05:05:50;3.90;99.90
7307;DHT22;3694;48.732;9.248;2022-11-20T05:08:16;4.00;99.90
7307;DHT22;3694;48.732;9.248;2022-11-20T05:10:41;4.00;99.90
7307;DHT22;3694;48.732;9.248;2022-11-20T05:13:07;4.10;99.90
7307;DHT22;3694;48.732;9.248;2022-11-20T05:15:32;4.10;99.90
7307;DHT22;3694;48.732;9.248;2022-11-20T05:17:58;4.10;99.90
7307;DHT22;3694;48.732;9.248;2022-11-20T05:20:23;4.20;99.90
7307;DHT22;3694;48.732;9.248;2022-11-20T05:22:49;4.30;99.90
7307;DHT22;3694;48.732;9.248;2022-11-20T05:25:14;4.30;99.90
7307;DHT22;3694;48.732;9.248;2022-11-20T05:27:40;4.30;99.90
7307;DHT22;3694;48.732;9.248;2022-11-20T05:30:06;4.40;99.90
7307;DHT22;3694;48.732;9.248;2022-11-20T05:32:32;4.40;99.90
7307;DHT22;3694;48.732;9.248;2022-11-20T05:34:57;4.40;99.90
7307;DHT22;3694;48.732;9.248;2022-11-20T05:37:23;4.50;99.90
7307;DHT22;3694;48.732;9.248;2022-11-20T05:39:48;4.50;99.90
7307;DHT22;3694;48.732;9.248;2022-11-20T05:42:14;4.50;99.90
7307;DHT22;3694;48.732;9.248;2022-11-20T05:44:58;4.50;99.90
7307;DHT22;3694;48.732;9.248;2022-11-20T05:47:25;4.50;99.90
7307;DHT22;3694;48.732;9.248;2022-11-20T05:49:51;4.50;99.90
7307;DHT22;3694;48.732;9.248;2022-11-20T05:52:16;4.50;99.90
7307;DHT22;3694;48.732;9.248;2022-11-20T05:54:42;4.60;99.90
7307;DHT22;3694;48.732;9.248;2022-11-20T05:57:07;4.60;99.90
7307;DHT22;3694;48.732;9.248;2022-11-20T05:59:33;4.60;99.90
7307;DHT22;3694;48.732;9.248;2022-11-20T06:01:58;4.60;99.90
7307;DHT22;3694;48.732;9.248;2022-11-20T06:04:24;4.70;99.90
7307;DHT22;3694;48.732;9.248;2022-11-20T06:06:50;4.70;99.90
7307;DHT22;3694;48.732;9.248;2022-11-20T06:09:15;4.70;99.90
7307;DHT22;3694;48.732;9.248;2022-11-20T06:11:41;4.70;99.90
7307;DHT22;3694;48.732;9.248;2022-11-20T06:14:06;4.70;99.90
7307;DHT22;3694;48.732;9.248;2022-11-20T06:16:32;4.70;99.90
7307;DHT22;3694;48.732;9.248;2022-11-20T06:18:57;4.70;99.90
7307;DHT22;3694;48.732;9.248;2022-11-20T06:21:23;4.70;99.90
7307;DHT22;3694;48.732;9.248;2022-11-20T06:23:50;4.60;99.90
7307;DHT22;3694;48.732;9.248;2022-11-20T06:26:19;4.60;99.90
7307;DHT22;3694;48.732;9.248;2022-11-20T06:28:45;4.60;99.90
7307;DHT22;3694;48.732;9.248;2022-11-20T06:31:13;4.60;99.90
7307;DHT22;3694;48.732;9.248;2022-11-20T06:33:40;4.60;99.90
7307;DHT22;3694;48.732;9.248;2022-11-20T06:36:05;4.60;99.90
7307;DHT22;3694;48.732;9.248;2022-11-20T06:38:31;4.60;99.90
7307;DHT22;3694;48.732;9.248;2022-11-20T06:40:57;4.60;99.90
7307;DHT22;3694;48.732;9.248;2022-11-20T06:43:23;4.60;99.90
7307;DHT22;3694;48.732;9.248;2022-11-20T06:45:56;4.60;99.90
7307;DHT22;3694;48.732;9.248;2022-11-20T06:48:23;4.60;99.90
7307;DHT22;3694;48.732;9.248;2022-11-20T06:50:49;4.60;99.90
7307;DHT22;3694;48.732;9.248;2022-11-20T06:53:14;4.60;99.90
7307;DHT22;3694;48.732;9.248;2022-11-20T06:55:49;4.60;99.90
7307;DHT22;3694;48.732;9.248;2022-11-20T06:58:15;4.60;99.90
7307;DHT22;3694;48.732;9.248;2022-11-20T07:00:41;4.60;99.90
7307;DHT22;3694;48.732;9.248;2022-11-20T07:03:09;4.60;99.90
7307;DHT22;3694;48.732;9.248;2022-11-20T07:05:35;4.60;99.90
7307;DHT22;3694;48.732;9.248;2022-11-20T07:08:02;4.50;99.90
7307;DHT22;3694;48.732;9.248;2022-11-20T07:10:28;4.60;99.90
7307;DHT22;3694;48.732;9.248;2022-11-20T07:12:54;4.50;99.90
7307;DHT22;3694;48.732;9.248;2022-11-20T07:15:22;4.50;99.90
7307;DHT22;3694;48.732;9.248;2022-11-20T07:17:48;4.50;99.90
7307;DHT22;3694;48.732;9.248;2022-11-20T07:20:14;4.60;99.90
7307;DHT22;3694;48.732;9.248;2022-11-20T07:22:39;4.60;99.90
7307;DHT22;3694;48.732;9.248;2022-11-20T07:25:06;4.70;99.90
7307;DHT22;3694;48.732;9.248;2022-11-20T07:27:31;4.70;99.90
7307;DHT22;3694;48.732;9.248;2022-11-20T07:29:57;4.80;99.90
7307;DHT22;3694;48.732;9.248;2022-11-20T07:32:23;4.90;99.90
7307;DHT22;3694;48.732;9.248;2022-11-20T07:34:48;5.00;99.90
7307;DHT22;3694;48.732;9.248;2022-11-20T07:37:14;5.10;99.90
7307;DHT22;3694;48.732;9.248;2022-11-20T07:39:40;5.10;99.90
7307;DHT22;3694;48.732;9.248;2022-11-20T07:42:09;5.20;99.90
7307;DHT22;3694;48.732;9.248;2022-11-20T07:44:35;5.20;99.90
7307;DHT22;3694;48.732;9.248;2022-11-20T07:47:02;5.20;99.90
7307;DHT22;3694;48.732;9.248;2022-11-20T07:49:28;5.20;99.90
7307;DHT22;3694;48.732;9.248;2022-11-20T07:51:53;5.30;99.90
7307;DHT22;3694;48.732;9.248;2022-11-20T07:54:20;5.30;99.90
7307;DHT22;3694;48.732;9.248;2022-11-20T07:56:46;5.40;99.90
7307;DHT22;3694;48.732;9.248;2022-11-20T07:59:11;5.50;99.90
7307;DHT22;3694;48.732;9.248;2022-11-20T08:01:38;5.50;99.90
7307;DHT22;3694;48.732;9.248;2022-11-20T08:04:04;5.60;99.90
7307;DHT22;3694;48.732;9.248;2022-11-20T08:06:30;5.60;99.90
7307;DHT22;3694;48.732;9.248;2022-11-20T08:08:56;5.70;99.90
7307;DHT22;3694;48.732;9.248;2022-11-20T08:11:21;5.80;99.90
7307;DHT22;3694;48.732;9.248;2022-11-20T08:14:05;5.90;99.90
7307;DHT22;3694;48.732;9.248;2022-11-20T08:16:37;5.90;99.90
7307;DHT22;3694;48.732;9.248;2022-11-20T08:19:03;6.00;99.90
7307;DHT22;3694;48.732;9.248;2022-11-20T08:21:30;6.00;99.90
7307;DHT22;3694;48.732;9.248;2022-11-20T08:23:57;6.10;99.90
7307;DHT22;3694;48.732;9.248;2022-11-20T08:26:23;6.10;99.90
7307;DHT22;3694;48.732;9.248;2022-11-20T08:28:48;6.20;99.90
7307;DHT22;3694;48.732;9.248;2022-11-20T08:31:14;6.20;99.90
7307;DHT22;3694;48.732;9.248;2022-11-20T08:33:40;6.20;99.90
7307;DHT22;3694;48.732;9.248;2022-11-20T08:36:06;6.20;99.90
7307;DHT22;3694;48.732;9.248;2022-11-20T08:38:32;6.30;99.90
7307;DHT22;3694;48.732;9.248;2022-11-20T08:41:02;6.30;99.90
7307;DHT22;3694;48.732;9.248;2022-11-20T08:43:46;6.30;99.90
7307;DHT22;3694;48.732;9.248;2022-11-20T08:46:12;6.30;99.90
7307;DHT22;3694;48.732;9.248;2022-11-20T08:48:38;6.30;99.90
7307;DHT22;3694;48.732;9.248;2022-11-20T08:51:03;6.40;99.90
7307;DHT22;3694;48.732;9.248;2022-11-20T08:53:29;6.50;99.90
7307;DHT22;3694;48.732;9.248;2022-11-20T08:55:56;6.40;99.90
7307;DHT22;3694;48.732;9.248;2022-11-20T08:58:22;6.40;99.90
7307;DHT22;3694;48.732;9.248;2022-11-20T09:00:47;6.40;99.90
7307;DHT22;3694;48.732;9.248;2022-11-20T09:03:13;6.40;99.90
7307;DHT22;3694;48.732;9.248;2022-11-20T09:05:38;6.60;99.90
7307;DHT22;3694;48.732;9.248;2022-11-20T09:08:04;6.80;99.90
7307;DHT22;3694;48.732;9.248;2022-11-20T09:10:30;6.80;99.90
7307;DHT22;3694;48.732;9.248;2022-11-20T09:12:56;7.00;99.90
7307;DHT22;3694;48.732;9.248;2022-11-20T09:15:22;7.10;99.90
7307;DHT22;3694;48.732;9.248;2022-11-20T09:17:52;7.10;99.90
7307;DHT22;3694;48.732;9.248;2022-11-20T09:20:19;7.00;99.90
7307;DHT22;3694;48.732;9.248;2022-11-20T09:22:44;7.10;99.90
7307;DHT22;3694;48.732;9.248;2022-11-20T09:25:10;7.20;99.90
7307;DHT22;3694;48.732;9.248;2022-11-20T09:27:35;7.10;99.90
7307;DHT22;3694;48.732;9.248;2022-11-20T09:30:01;7.00;99.90
7307;DHT22;3694;48.732;9.248;2022-11-20T09:32:27;7.00;99.90
7307;DHT22;3694;48.732;9.248;2022-11-20T09:34:53;6.90;99.90
7307;DHT22;3694;48.732;9.248;2022-11-20T09:37:18;7.00;99.90
7307;DHT22;3694;48.732;9.248;2022-11-20T09:39:44;7.10;99.90
7307;DHT22;3694;48.732;9.248;2022-11-20T09:42:31;7.20;99.90
7307;DHT22;3694;48.732;9.248;2022-11-20T09:45:20;7.10;99.90
7307;DHT22;3694;48.732;9.248;2022-11-20T09:51:08;7.00;99.90
7307;DHT22;3694;48.732;9.248;2022-11-20T09:56:19;7.00;99.90
7307;DHT22;3694;48.732;9.248;2022-11-20T09:58:49;7.20;99.90
7307;DHT22;3694;48.732;9.248;2022-11-20T10:03:50;7.20;99.90
7307;DHT22;3694;48.732;9.248;2022-11-20T10:06:28;7.20;99.90
7307;DHT22;3694;48.732;9.248;2022-11-20T10:12:04;7.10;99.90
7307;DHT22;3694;48.732;9.248;2022-11-20T10:20:02;7.10;99.90
7307;DHT22;3694;48.732;9.248;2022-11-20T10:22:44;7.00;99.90
7307;DHT22;3694;48.732;9.248;2022-11-20T10:25:20;6.90;99.90
7307;DHT22;3694;48.732;9.248;2022-11-20T10:31:08;7.00;99.90
7307;DHT22;3694;48.732;9.248;2022-11-20T10:33:42;7.00;99.90
7307;DHT22;3694;48.732;9.248;2022-11-20T10:36:23;7.10;99.90
7307;DHT22;3694;48.732;9.248;2022-11-20T10:39:16;6.90;99.90
7307;DHT22;3694;48.732;9.248;2022-11-20T10:41:46;6.80;99.90
7307;DHT22;3694;48.732;9.248;2022-11-20T10:44:24;6.80;99.90
7307;DHT22;3694;48.732;9.248;2022-11-20T10:47:18;6.60;99.90
7307;DHT22;3694;48.732;9.248;2022-11-20T10:49:46;6.50;99.90
7307;DHT22;3694;48.732;9.248;2022-11-20T10:52:34;6.40;99.90
7307;DHT22;3694;48.732;9.248;2022-11-20T11:00:40;6.30;99.90
7307;DHT22;3694;48.732;9.248;2022-11-20T11:03:24;6.30;99.90
7307;DHT22;3694;48.732;9.248;2022-11-20T11:05:56;6.30;99.90
7307;DHT22;3694;48.732;9.248;2022-11-20T11:08:26;6.30;99.90
7307;DHT22;3694;48.732;9.248;2022-11-20T11:11:07;6.40;99.90
7307;DHT22;3694;48.732;9.248;2022-11-20T11:13:38;6.30;99.90
7307;DHT22;3694;48.732;9.248;2022-11-20T11:16:03;6.30;99.90
7307;DHT22;3694;48.732;9.248;2022-11-20T11:18:34;6.40;99.90
7307;DHT22;3694;48.732;9.248;2022-11-20T11:21:02;6.40;99.90
7307;DHT22;3694;48.732;9.248;2022-11-20T11:23:41;6.50;99.90
7307;DHT22;3694;48.732;9.248;2022-11-20T11:26:19;6.50;99.90
7307;DHT22;3694;48.732;9.248;2022-11-20T11:29:03;6.70;99.90
7307;DHT22;3694;48.732;9.248;2022-11-20T11:31:32;7.00;99.90
7307;DHT22;3694;48.732;9.248;2022-11-20T11:34:15;7.20;99.90
7307;DHT22;3694;48.732;9.248;2022-11-20T11:36:41;7.30;99.90
7307;DHT22;3694;48.732;9.248;2022-11-20T11:39:13;7.40;99.90
7307;DHT22;3694;48.732;9.248;2022-11-20T11:41:40;7.40;99.90
7307;DHT22;3694;48.732;9.248;2022-11-20T11:49:48;7.10;99.90
7307;DHT22;3694;48.732;9.248;2022-11-20T11:52:17;7.00;99.90
7307;DHT22;3694;48.732;9.248;2022-11-20T11:54:55;6.90;99.90
7307;DHT22;3694;48.732;9.248;2022-11-20T12:00:12;7.00;99.90
7307;DHT22;3694;48.732;9.248;2022-11-20T12:05:16;7.20;99.90
7307;DHT22;3694;48.732;9.248;2022-11-20T12:08:02;7.20;99.90
7307;DHT22;3694;48.732;9.248;2022-11-20T12:15:44;7.30;99.90
7307;DHT22;3694;48.732;9.248;2022-11-20T12:18:18;7.40;99.90
7307;DHT22;3694;48.732;9.248;2022-11-20T12:21:14;7.40;99.90
7307;DHT22;3694;48.732;9.248;2022-11-20T12:24:06;7.50;99.90
7307;DHT22;3694;48.732;9.248;2022-11-20T12:38:06;7.80;98.70
7307;DHT22;3694;48.732;9.248;2022-11-20T12:40:54;7.60;98.70
7307;DHT22;3694;48.732;9.248;2022-11-20T12:43:27;7.50;99.20
7307;DHT22;3694;48.732;9.248;2022-11-20T12:51:33;7.90;98.90
7307;DHT22;3694;48.732;9.248;2022-11-20T12:57:09;8.20;98.70
7307;DHT22;3694;48.732;9.248;2022-11-20T13:00:14;8.10;98.60
7307;DHT22;3694;48.732;9.248;2022-11-20T13:05:46;7.70;98.10
7307;DHT22;3694;48.732;9.248;2022-11-20T13:10:54;7.60;97.60
7307;DHT22;3694;48.732;9.248;2022-11-20T13:18:52;7.60;98.20
7307;DHT22;3694;48.732;9.248;2022-11-20T13:21:21;7.60;98.10
7307;DHT22;3694;48.732;9.248;2022-11-20T13:23:47;7.70;98.10
7307;DHT22;3694;48.732;9.248;2022-11-20T13:26:23;7.70;98.00
7307;DHT22;3694;48.732;9.248;2022-11-20T13:29:10;7.80;97.60
7307;DHT22;3694;48.732;9.248;2022-11-20T13:31:40;7.90;97.60
7307;DHT22;3694;48.732;9.248;2022-11-20T13:34:12;8.00;96.70
7307;DHT22;3694;48.732;9.248;2022-11-20T13:36:52;8.10;96.70
7307;DHT22;3694;48.732;9.248;2022-11-20T13:39:35;8.00;96.00
7307;DHT22;3694;48.732;9.248;2022-11-20T13:44:42;7.80;96.70
7307;DHT22;3694;48.732;9.248;2022-11-20T13:47:35;7.80;96.60
7307;DHT22;3694;48.732;9.248;2022-11-20T13:50:03;7.80;96.60
7307;DHT22;3694;48.732;9.248;2022-11-20T13:58:21;7.50;96.80
7307;DHT22;3694;48.732;9.248;2022-11-20T14:03:38;7.60;97.00
7307;DHT22;3694;48.732;9.248;2022-11-20T14:06:15;7.70;96.80
7307;DHT22;3694;48.732;9.248;2022-11-20T14:08:48;7.60;96.80
7307;DHT22;3694;48.732;9.248;2022-11-20T14:13:53;7.50;96.80
7307;DHT22;3694;48.732;9.248;2022-11-20T14:16:20;7.50;96.70
7307;DHT22;3694;48.732;9.248;2022-11-20T14:18:46;7.40;96.90
7307;DHT22;3694;48.732;9.248;2022-11-20T14:21:21;7.30;97.00
7307;DHT22;3694;48.732;9.248;2022-11-20T14:23:47;7.10;97.00
7307;DHT22;3694;48.732;9.248;2022-11-20T14:26:17;7.00;96.90
7307;DHT22;3694;48.732;9.248;2022-11-20T14:28:48;6.90;97.10
7307;DHT22;3694;48.732;9.248;2022-11-20T14:31:22;6.70;96.90
7307;DHT22;3694;48.732;9.248;2022-11-20T14:33:48;6.70;97.10
7307;DHT22;3694;48.732;9.248;2022-11-20T14:36:22;6.50;97.30
7307;DHT22;3694;48.732;9.248;2022-11-20T14:38:49;6.50;97.30
7307;DHT22;3694;48.732;9.248;2022-11-20T14:41:23;6.50;97.60
7307;DHT22;3694;48.732;9.248;2022-11-20T14:44:09;6.50;97.80
7307;DHT22;3694;48.732;9.248;2022-11-20T14:46:35;6.50;98.00
7307;DHT22;3694;48.732;9.248;2022-11-20T14:49:01;6.40;98.30
7307;DHT22;3694;48.732;9.248;2022-11-20T14:51:37;6.30;98.50
7307;DHT22;3694;48.732;9.248;2022-11-20T14:54:15;6.20;98.70
7307;DHT22;3694;48.732;9.248;2022-11-20T14:56:42;6.20;99.00
7307;DHT22;3694;48.732;9.248;2022-11-20T14:59:23;6.10;99.20
7307;DHT22;3694;48.732;9.248;2022-11-20T15:02:12;6.00;99.50
7307;DHT22;3694;48.732;9.248;2022-11-20T15:04:57;6.00;99.70
7307;DHT22;3694;48.732;9.248;2022-11-20T15:07:43;5.90;99.90
7307;DHT22;3694;48.732;9.248;2022-11-20T15:10:24;5.90;99.90
7307;DHT22;3694;48.732;9.248;2022-11-20T15:12:55;5.80;99.90
7307;DHT22;3694;48.732;9.248;2022-11-20T15:15:36;5.80;99.90
7307;DHT22;3694;48.732;9.248;2022-11-20T15:18:04;5.80;99.90
7307;DHT22;3694;48.732;9.248;2022-11-20T15:20:32;5.70;99.90
7307;DHT22;3694;48.732;9.248;2022-11-20T15:22:58;5.60;99.90
7307;DHT22;3694;48.732;9.248;2022-11-20T15:25:23;5.60;99.90
7307;DHT22;3694;48.732;9.248;2022-11-20T15:27:53;5.50;99.90
7307;DHT22;3694;48.732;9.248;2022-11-20T15:30:20;5.50;99.90
7307;DHT22;3694;48.732;9.248;2022-11-20T15:32:46;5.40;99.90
7307;DHT22;3694;48.732;9.248;2022-11-20T15:35:13;5.30;99.90
7307;DHT22;3694;48.732;9.248;2022-11-20T15:37:39;5.40;99.90
7307;DHT22;3694;48.732;9.248;2022-11-20T15:40:06;5.20;99.90
7307;DHT22;3694;48.732;9.248;2022-11-20T15:42:32;5.10;99.90
7307;DHT22;3694;48.732;9.248;2022-11-20T15:44:58;5.10;99.90
7307;DHT22;3694;48.732;9.248;2022-11-20T15:47:30;5.00;99.90
7307;DHT22;3694;48.732;9.248;2022-11-20T15:49:56;5.00;99.90
7307;DHT22;3694;48.732;9.248;2022-11-20T15:52:22;5.00;99.90
7307;DHT22;3694;48.732;9.248;2022-11-20T15:54:47;5.00;99.90
7307;DHT22;3694;48.732;9.248;2022-11-20T15:57:13;5.00;99.90
7307;DHT22;3694;48.732;9.248;2022-11-20T15:59:39;4.80;99.90
7307;DHT22;3694;48.732;9.248;2022-11-20T16:02:16;4.70;99.90
7307;DHT22;3694;48.732;9.248;2022-11-20T16:04:41;4.60;99.90
7307;DHT22;3694;48.732;9.248;2022-11-20T16:07:07;4.40;99.90
7307;DHT22;3694;48.732;9.248;2022-11-20T16:09:33;4.30;99.90
7307;DHT22;3694;48.732;9.248;2022-11-20T16:11:59;4.40;99.90
7307;DHT22;3694;48.732;9.248;2022-11-20T16:14:25;4.40;99.90
7307;DHT22;3694;48.732;9.248;2022-11-20T16:17:10;4.40;99.90
7307;DHT22;3694;48.732;9.248;2022-11-20T16:19:35;4.40;99.90
7307;DHT22;3694;48.732;9.248;2022-11-20T16:22:01;4.40;99.90
7307;DHT22;3694;48.732;9.248;2022-11-20T16:24:27;4.50;99.90
7307;DHT22;3694;48.732;9.248;2022-11-20T16:26:56;4.50;99.90
7307;DHT22;3694;48.732;9.248;2022-11-20T16:29:21;4.60;99.90
7307;DHT22;3694;48.732;9.248;2022-11-20T16:31:47;4.70;99.90
7307;DHT22;3694;48.732;9.248;2022-11-20T16:34:16;4.90;99.90
7307;DHT22;3694;48.732;9.248;2022-11-20T16:36:43;5.00;99.90
7307;DHT22;3694;48.732;9.248;2022-11-20T16:39:10;5.10;99.90
7307;DHT22;3694;48.732;9.248;2022-11-20T16:41:36;5.20;99.90
7307;DHT22;3694;48.732;9.248;2022-11-20T16:44:09;5.30;99.90
7307;DHT22;3694;48.732;9.248;2022-11-20T16:46:35;5.40;99.90
7307;DHT22;3694;48.732;9.248;2022-11-20T16:49:03;5.40;99.90
7307;DHT22;3694;48.732;9.248;2022-11-20T16:51:31;5.50;99.90
7307;DHT22;3694;48.732;9.248;2022-11-20T16:54:01;5.50;99.90
7307;DHT22;3694;48.732;9.248;2022-11-20T16:56:27;5.40;99.90
7307;DHT22;3694;48.732;9.248;2022-11-20T16:58:55;5.40;99.90
7307;DHT22;3694;48.732;9.248;2022-11-20T17:01:22;5.40;99.90
7307;DHT22;3694;48.732;9.248;2022-11-20T17:03:56;5.40;99.90
7307;DHT22;3694;48.732;9.248;2022-11-20T17:06:24;5.30;99.90
7307;DHT22;3694;48.732;9.248;2022-11-20T17:08:52;5.30;99.90
7307;DHT22;3694;48.732;9.248;2022-11-20T17:11:18;5.30;99.90
7307;DHT22;3694;48.732;9.248;2022-11-20T17:13:45;5.20;99.90
7307;DHT22;3694;48.732;9.248;2022-11-20T17:16:13;5.20;99.90
7307;DHT22;3694;48.732;9.248;2022-11-20T17:18:39;5.20;99.90
7307;DHT22;3694;48.732;9.248;2022-11-20T17:21:05;5.20;99.90
7307;DHT22;3694;48.732;9.248;2022-11-20T17:23:33;5.20;99.90
7307;DHT22;3694;48.732;9.248;2022-11-20T17:28:33;5.20;99.90
7307;DHT22;3694;48.732;9.248;2022-11-20T17:31:01;5.20;99.90
7307;DHT22;3694;48.732;9.248;2022-11-20T17:33:27;5.10;99.90
7307;DHT22;3694;48.732;9.248;2022-11-20T17:35:53;5.20;99.90
7307;DHT22;3694;48.732;9.248;2022-11-20T17:38:18;5.20;99.90
7307;DHT22;3694;48.732;9.248;2022-11-20T17:40:44;5.20;99.90
7307;DHT22;3694;48.732;9.248;2022-11-20T17:43:10;5.20;99.90
7307;DHT22;3694;48.732;9.248;2022-11-20T17:45:36;5.30;99.90
7307;DHT22;3694;48.732;9.248;2022-11-20T17:48:01;5.30;99.90
7307;DHT22;3694;48.732;9.248;2022-11-20T17:50:27;5.40;99.90
7307;DHT22;3694;48.732;9.248;2022-11-20T17:52:53;5.40;99.90
7307;DHT22;3694;48.732;9.248;2022-11-20T17:55:18;5.40;99.90
7307;DHT22;3694;48.732;9.248;2022-11-20T17:57:44;5.40;99.90
7307;DHT22;3694;48.732;9.248;2022-11-20T18:00:20;5.50;99.90
7307;DHT22;3694;48.732;9.248;2022-11-20T18:02:46;5.50;99.90
7307;DHT22;3694;48.732;9.248;2022-11-20T18:05:12;5.60;99.90
7307;DHT22;3694;48.732;9.248;2022-11-20T18:07:38;5.60;99.90
7307;DHT22;3694;48.732;9.248;2022-11-20T18:10:04;5.50;99.90